createdAt,value
2022-11-07T18:34:38.769Z,15.40
2022-11-07T18:37:27.323Z,15.40
2022-11-07T18:40:16.162Z,15.60
2022-11-07T18:43:05.023Z,15.20
2022-11-07T18:45:53.593Z,15.30
2022-11-07T18:48:44.825Z,15.40
2022-11-07T18:51:38.588Z,15.30
2022-11-07T18:54:27.699Z,15.30
2022-11-07T18:57:16.717Z,15.30
2022-11-07T19:00:13.449Z,15.10
2022-11-07T19:03:02.541Z,15.40
2022-11-07T19:05:51.629Z,15.30
2022-11-07T19:08:50.488Z,15.40
2022-11-07T19:11:40.745Z,15.40
2022-11-07T19:14:33.699Z,15.50
2022-11-07T19:17:22.522Z,15.30
2022-11-07T19:20:12.618Z,15.50
2022-11-07T19:23:01.325Z,15.50
2022-11-07T19:25:51.508Z,15.40
2022-11-07T19:28:40.917Z,15.30
2022-11-07T19:31:34.622Z,15.30
2022-11-07T19:34:26.651Z,15.50
2022-11-07T19:37:15.154Z,15.40
2022-11-07T19:40:03.608Z,15.40
2022-11-07T19:42:56.121Z,15.20
2022-11-07T19:45:44.789Z,15.40
2022-11-07T19:48:34.112Z,15.30
2022-11-07T19:51:23.357Z,15.20
2022-11-07T19:54:13.260Z,15.20
2022-11-07T19:57:01.780Z,15.30
2022-11-07T19:59:51.687Z,15.40
2022-11-07T20:02:44.577Z,15.20
2022-11-07T20:05:34.415Z,15.20
2022-11-07T20:08:23.031Z,15.30
2022-11-07T20:11:14.230Z,15.20
2022-11-07T20:14:04.130Z,15.20
2022-11-07T20:16:54.276Z,15.20
2022-11-07T20:19:43.084Z,15.10
2022-11-07T20:22:31.677Z,15.10
2022-11-07T20:25:20.520Z,15.10
2022-11-07T20:28:09.254Z,15.00
2022-11-07T20:30:57.703Z,15.20
2022-11-07T20:33:48.421Z,15.00
2022-11-07T20:36:37.129Z,15.10
2022-11-07T20:39:25.937Z,15.10
2022-11-07T20:42:14.954Z,15.10
2022-11-07T20:45:03.491Z,15.00
2022-11-07T20:47:52.306Z,14.90
2022-11-07T20:50:42.302Z,14.90
2022-11-07T20:53:31.016Z,15.00
2022-11-07T20:56:20.371Z,15.00
2022-11-07T20:59:09.588Z,15.20
2022-11-07T21:02:03.002Z,14.80
2022-11-07T21:05:16.148Z,14.90
2022-11-07T21:08:02.626Z,14.80
2022-11-07T21:10:52.614Z,15.10
2022-11-07T21:13:41.489Z,14.80
2022-11-07T21:16:34.484Z,14.80
2022-11-07T21:19:23.068Z,14.90
2022-11-07T21:22:11.550Z,15.00
2022-11-07T21:25:01.420Z,15.00
2022-11-07T21:27:49.919Z,15.00
2022-11-07T21:30:38.625Z,15.00
2022-11-07T21:33:27.541Z,15.30
2022-11-07T21:36:18.802Z,15.00
2022-11-07T21:39:08.617Z,15.00
2022-11-07T21:41:58.516Z,15.10
2022-11-07T21:44:46.974Z,15.00
2022-11-07T21:47:35.458Z,15.10
2022-11-07T21:53:37.761Z,15.10
2022-11-07T21:56:29.456Z,15.00
2022-11-07T21:59:19.608Z,14.90
2022-11-07T22:02:08.931Z,15.10
2022-11-07T22:04:57.659Z,15.00
2022-11-07T22:07:46.439Z,15.00
2022-11-07T22:10:35.060Z,15.00
2022-11-07T22:13:23.656Z,15.00
2022-11-07T22:16:15.505Z,14.90
2022-11-07T22:19:07.243Z,14.90
2022-11-07T22:21:58.406Z,14.90
2022-11-07T22:24:47.040Z,14.70
2022-11-07T22:27:37.295Z,14.90
2022-11-07T22:30:25.855Z,14.60
2022-11-07T22:33:15.992Z,14.50
2022-11-07T22:36:06.407Z,14.80
2022-11-07T22:38:55.023Z,14.50
2022-11-07T22:41:43.485Z,14.40
2022-11-07T22:44:31.977Z,14.60
2022-11-07T22:47:20.490Z,14.30
2022-11-07T22:50:11.232Z,14.20
2022-11-07T22:52:59.733Z,14.40
2022-11-07T22:55:48.192Z,14.40
2022-11-07T22:58:37.562Z,14.20
2022-11-07T23:01:28.408Z,14.20
2022-11-07T23:04:18.235Z,14.10
2022-11-07T23:07:08.245Z,14.10
2022-11-07T23:10:00.752Z,14.50
2022-11-07T23:12:49.559Z,14.00
2022-11-07T23:15:38.098Z,14.20
2022-11-07T23:18:26.735Z,13.90
2022-11-07T23:21:15.465Z,14.00
2022-11-07T23:24:06.119Z,13.90
2022-11-07T23:26:54.698Z,13.80
2022-11-07T23:29:44.131Z,13.90
2022-11-07T23:32:32.620Z,13.80
2022-11-07T23:35:21.110Z,13.80
2022-11-07T23:38:09.615Z,13.70
2022-11-07T23:41:02.638Z,13.60
2022-11-07T23:43:52.624Z,13.60
2022-11-07T23:46:58.995Z,13.90
2022-11-07T23:50:04.794Z,13.50
2022-11-07T23:52:53.300Z,13.50
2022-11-07T23:55:40.855Z,13.50
2022-11-07T23:58:48.223Z,13.50
